Terminal Aerodrome Forecast
Issued by NWS

Home | Current Version | Previous Version | Text Only | Print | Product List | Glossary On
Versions: 1 2 3 4 5 6 7 8 9 10 11 12 13 14 15 16
162
FTUS45 KRIW 191825 AAA
TAFBPI
TAF AMD
KBPI 191825Z 1918/2018 08008KT 2SM -SN BR SCT015 OVC025
     FM192200 VRB03KT 2SM -SN BR SCT012 OVC018
     FM200200 VRB05KT 1SM -SN BR SCT008 OVC012
     FM201700 VRB05KT 4SM -SN BR SCT008 OVC018=

USA.gov is the U.S. government's official web portal to all federal, state and local government web resources and services.